createdAt,value
2023-05-21T00:00:20.766Z,99277.16
2023-05-21T00:05:22.592Z,99269.78
2023-05-21T00:10:24.357Z,99264.45
2023-05-21T00:15:26.150Z,99264.98
2023-05-21T00:20:29.432Z,99264.27
2023-05-21T00:25:31.306Z,99262.88
2023-05-21T00:30:33.028Z,99263.41
2023-05-21T00:35:35.115Z,99262.23
2023-05-21T00:40:37.162Z,99259.65
2023-05-21T00:45:39.813Z,99258.96
2023-05-21T00:50:42.184Z,99255.33
2023-05-21T00:55:44.307Z,99256.21
2023-05-21T01:00:46.963Z,99249.69
2023-05-21T01:05:53.491Z,99244.39
2023-05-21T01:10:56.852Z,99239.09
2023-05-21T01:16:00.209Z,99229.63
2023-05-21T01:21:02.410Z,99228.26
2023-05-21T01:26:04.311Z,99226.38
2023-05-21T01:31:27.574Z,99220.34
2023-05-21T01:36:34.575Z,99213.31
2023-05-21T01:41:41.226Z,99209.38
2023-05-21T01:46:43.130Z,99208.52
2023-05-21T01:51:45.820Z,99205.79
2023-05-21T01:56:48.055Z,99201.52
2023-05-21T02:01:49.944Z,99196.36
2023-05-21T02:06:51.974Z,99195.17
2023-05-21T02:11:54.017Z,99196.77
2023-05-21T02:16:56.860Z,99189.73
2023-05-21T02:21:58.553Z,99191.27
2023-05-21T02:27:00.265Z,99189.92
2023-05-21T02:32:02.175Z,99189.06
2023-05-21T02:37:04.196Z,99191.48
2023-05-21T02:42:05.983Z,99190.98
2023-05-21T02:47:10.334Z,99188.77
2023-05-21T02:52:13.021Z,99179.83
2023-05-21T02:57:15.352Z,99178.61
2023-05-21T03:02:17.598Z,99176.52
2023-05-21T03:07:19.940Z,99168.05
2023-05-21T03:12:21.950Z,99167.68
2023-05-21T03:17:23.914Z,99167.28
2023-05-21T03:22:25.763Z,99171.37
2023-05-21T03:27:28.129Z,99174.09
2023-05-21T03:32:30.617Z,99175.96
2023-05-21T03:37:33.031Z,99171.30
2023-05-21T03:42:35.599Z,99170.27
2023-05-21T03:47:37.526Z,99172.67
2023-05-21T03:52:41.193Z,99169.91
2023-05-21T03:57:43.122Z,99170.19
2023-05-21T04:02:45.130Z,99172.40
2023-05-21T04:07:48.592Z,99174.05
2023-05-21T04:12:52.448Z,99171.39
2023-05-21T04:17:55.287Z,99174.72
2023-05-21T04:22:57.352Z,99183.02
2023-05-21T04:28:00.247Z,99186.02
2023-05-21T04:33:03.074Z,99181.57
2023-05-21T04:38:05.818Z,99176.73
2023-05-21T04:43:08.281Z,99180.93
2023-05-21T04:48:10.282Z,99181.93
2023-05-21T04:53:12.336Z,99194.34
2023-05-21T04:58:14.746Z,99198.70
2023-05-21T05:03:16.673Z,99200.98
2023-05-21T05:08:18.946Z,99202.49
2023-05-21T05:13:20.947Z,99198.13
2023-05-21T05:18:23.281Z,99196.98
2023-05-21T05:23:25.184Z,99200.69
2023-05-21T05:28:27.771Z,99200.13
2023-05-21T05:33:29.670Z,99200.70
2023-05-21T05:38:31.457Z,99197.86
2023-05-21T05:43:33.559Z,99199.25
2023-05-21T05:48:35.627Z,99194.69
2023-05-21T05:53:37.892Z,99198.73
2023-05-21T05:58:39.977Z,99199.33
2023-05-21T06:03:45.334Z,99202.36
2023-05-21T06:08:49.750Z,99203.61
2023-05-21T06:13:51.658Z,99205.06
2023-05-21T06:18:53.426Z,99199.48
2023-05-21T06:23:55.516Z,99194.96
2023-05-21T06:28:57.471Z,99190.98
2023-05-21T06:34:00.673Z,99184.26
2023-05-21T06:39:03.782Z,99179.03
2023-05-21T06:44:06.113Z,99173.56
2023-05-21T06:49:14.602Z,99169.63
2023-05-21T06:54:17.599Z,99165.80
2023-05-21T06:59:19.677Z,99165.21
2023-05-21T07:04:21.427Z,99164.50
2023-05-21T07:09:23.274Z,99158.48
2023-05-21T07:14:26.562Z,99154.31
2023-05-21T07:19:28.583Z,99149.46
2023-05-21T07:24:30.563Z,99155.27
2023-05-21T07:29:34.155Z,99151.80
2023-05-21T07:34:36.165Z,99148.91
2023-05-21T07:39:38.804Z,99153.95
2023-05-21T07:44:41.036Z,99153.66
2023-05-21T07:49:42.910Z,99149.95
2023-05-21T07:54:45.732Z,99143.50
2023-05-21T07:59:47.901Z,99143.77
2023-05-21T08:04:49.951Z,99142.21
2023-05-21T08:09:53.821Z,99142.98
2023-05-21T08:14:57.691Z,99144.39
2023-05-21T08:19:59.502Z,99137.36
2023-05-21T08:25:03.446Z,99135.05
2023-05-21T08:30:06.872Z,99129.20
2023-05-21T08:35:09.873Z,99128.84
2023-05-21T08:40:31.103Z,99124.67
2023-05-21T08:45:38.287Z,99123.37
2023-05-21T08:50:41.583Z,99123.45
2023-05-21T08:55:51.746Z,99115.85
2023-05-21T09:00:56.344Z,99115.15
2023-05-21T09:06:00.759Z,99112.51
2023-05-21T09:11:03.796Z,99107.57
2023-05-21T09:16:19.234Z,99108.71
2023-05-21T09:21:28.858Z,99108.62
2023-05-21T09:26:34.343Z,99103.71
2023-05-21T09:31:44.053Z,99105.67
2023-05-21T09:36:49.317Z,99104.31
2023-05-21T09:41:51.229Z,99104.42
2023-05-21T09:46:58.811Z,99093.09
2023-05-21T09:52:00.636Z,99091.61
2023-05-21T09:57:02.971Z,99094.75
2023-05-21T10:02:16.522Z,99090.03
2023-05-21T10:07:25.906Z,99088.08
2023-05-21T10:12:31.017Z,99092.77
2023-05-21T10:17:33.362Z,99085.80
2023-05-21T10:22:35.753Z,99082.73
2023-05-21T10:27:37.692Z,99071.33
2023-05-21T10:32:42.169Z,99073.27
2023-05-21T10:37:45.605Z,99067.91
2023-05-21T10:43:13.411Z,99060.16
2023-05-21T10:48:46.600Z,99053.53
2023-05-21T10:53:59.339Z,99054.45
2023-05-21T10:59:18.621Z,99051.03
2023-05-21T11:04:26.861Z,99048.08
2023-05-21T11:09:28.637Z,99044.59
2023-05-21T11:14:42.962Z,99042.64
2023-05-21T11:19:48.045Z,99042.42
2023-05-21T11:24:51.479Z,99040.22
2023-05-21T11:29:55.819Z,99041.73
2023-05-21T11:35:02.158Z,99035.89
2023-05-21T11:40:18.398Z,99034.19
2023-05-21T11:45:23.480Z,99028.84
2023-05-21T11:50:25.841Z,99030.96
2023-05-21T11:55:27.925Z,99029.25
2023-05-21T12:00:29.808Z,99021.23
2023-05-21T12:05:31.591Z,99018.20
2023-05-21T12:10:33.494Z,99023.88
2023-05-21T12:15:35.759Z,99019.63
2023-05-21T12:20:37.980Z,99015.56
2023-05-21T12:25:40.078Z,99011.86
2023-05-21T12:30:41.985Z,99012.66
2023-05-21T12:35:50.269Z,99013.69
2023-05-21T12:40:52.330Z,98992.21
2023-05-21T12:45:54.213Z,99008.99
2023-05-21T12:50:59.209Z,99008.21
2023-05-21T12:56:11.690Z,98998.23
2023-05-21T13:01:14.234Z,98998.86
2023-05-21T13:06:15.998Z,98997.48
2023-05-21T13:11:17.672Z,98992.82
2023-05-21T13:16:22.195Z,98990.76
2023-05-21T13:21:24.118Z,98986.13
2023-05-21T13:26:25.898Z,98986.73
2023-05-21T13:31:28.656Z,98985.56
2023-05-21T13:36:31.343Z,98986.18
2023-05-21T13:41:33.549Z,98979.05
2023-05-21T13:46:39.618Z,98976.46
2023-05-21T13:51:41.735Z,98972.77
2023-05-21T13:56:43.493Z,98968.98
2023-05-21T14:01:45.885Z,98966.62
2023-05-21T14:06:48.259Z,98968.20
2023-05-21T14:11:50.136Z,98962.86
2023-05-21T14:16:52.521Z,98958.71
2023-05-21T14:21:54.496Z,98960.08
2023-05-21T14:26:56.319Z,98963.90
2023-05-21T14:31:58.063Z,98961.15
2023-05-21T14:36:59.884Z,98968.26
2023-05-21T14:42:04.798Z,98969.13
2023-05-21T14:47:06.551Z,98969.27
2023-05-21T14:52:08.355Z,98965.21
2023-05-21T14:57:10.137Z,98965.58
2023-05-21T15:02:11.936Z,98966.64
2023-05-21T15:07:13.897Z,98966.27
2023-05-21T15:12:15.904Z,98968.69
2023-05-21T15:17:17.626Z,98971.79
2023-05-21T15:22:19.459Z,98972.12
2023-05-21T15:27:21.182Z,98970.65
2023-05-21T15:32:23.119Z,98969.45
2023-05-21T15:37:25.351Z,98969.43
2023-05-21T15:42:31.235Z,98971.63
2023-05-21T15:47:33.049Z,98974.67
2023-05-21T15:52:34.834Z,98969.43
2023-05-21T15:57:36.622Z,98973.44
2023-05-21T16:02:38.632Z,98971.48
2023-05-21T16:07:40.518Z,98970.48
2023-05-21T16:12:42.514Z,98974.74
2023-05-21T16:17:44.208Z,98976.41
2023-05-21T16:22:45.945Z,98977.96
2023-05-21T16:27:48.816Z,98974.46
2023-05-21T16:32:50.629Z,98973.90
2023-05-21T16:37:52.473Z,98978.91
2023-05-21T16:42:54.216Z,98973.94
2023-05-21T16:47:55.977Z,98973.36
2023-05-21T16:52:59.256Z,98975.66
2023-05-21T16:58:02.455Z,98979.36
2023-05-21T17:03:04.493Z,98985.04
2023-05-21T17:08:06.524Z,98984.14
2023-05-21T17:13:20.758Z,98986.35
2023-05-21T17:18:23.711Z,98981.90
2023-05-21T17:23:25.501Z,98987.04
2023-05-21T17:28:27.381Z,98987.75
2023-05-21T17:33:29.179Z,98989.90
2023-05-21T17:38:30.977Z,98993.67
2023-05-21T17:43:32.723Z,99001.05
2023-05-21T17:48:34.694Z,99000.49
2023-05-21T17:53:36.456Z,99005.11
2023-05-21T17:58:38.288Z,99003.04
2023-05-21T18:03:40.170Z,99004.09
2023-05-21T18:08:42.013Z,99003.20
2023-05-21T18:13:43.696Z,98997.93
2023-05-21T18:18:45.442Z,98994.84
2023-05-21T18:23:47.316Z,99002.63
2023-05-21T18:28:49.840Z,99010.75
2023-05-21T18:33:51.868Z,99008.16
2023-05-21T18:38:53.637Z,99006.59
2023-05-21T18:43:55.437Z,99004.74
2023-05-21T18:48:59.463Z,99010.52
2023-05-21T18:54:01.257Z,99011.89
2023-05-21T18:59:03.089Z,99022.25
2023-05-21T19:04:05.430Z,99029.30
2023-05-21T19:09:07.250Z,99032.94
2023-05-21T19:14:09.050Z,99031.42
2023-05-21T19:19:10.781Z,99031.95
2023-05-21T19:24:12.664Z,99034.80
2023-05-21T19:29:14.420Z,99043.42
2023-05-21T19:34:16.361Z,99042.02
2023-05-21T19:39:18.214Z,99041.44
2023-05-21T19:44:19.986Z,99041.66
2023-05-21T19:49:21.935Z,99043.36
2023-05-21T19:54:24.343Z,99042.58
2023-05-21T19:59:26.426Z,99048.09
2023-05-21T20:04:28.208Z,99041.50
2023-05-21T20:09:29.897Z,99036.92
2023-05-21T20:14:34.344Z,99032.11
2023-05-21T20:19:37.901Z,99020.63
2023-05-21T20:24:39.894Z,99016.10
2023-05-21T20:29:42.934Z,99015.51
2023-05-21T20:34:58.811Z,99012.63
2023-05-21T20:40:06.787Z,99013.52
2023-05-21T20:45:09.548Z,99013.63
2023-05-21T20:50:12.272Z,99014.41
2023-05-21T20:55:14.627Z,99016.05
2023-05-21T21:00:17.159Z,99019.86
2023-05-21T21:05:20.046Z,99017.30
2023-05-21T21:10:23.633Z,99013.92
2023-05-21T21:15:41.391Z,99016.59
2023-05-21T21:20:43.720Z,99015.69
2023-05-21T21:25:45.860Z,99018.08
2023-05-21T21:30:47.615Z,99018.07
2023-05-21T21:35:49.576Z,99026.35
2023-05-21T21:40:54.530Z,99027.16
2023-05-21T21:45:57.794Z,99029.37
2023-05-21T21:51:01.895Z,99020.71
2023-05-21T21:56:04.954Z,99018.77
2023-05-21T22:01:06.789Z,99017.84
2023-05-21T22:06:08.858Z,99011.20
2023-05-21T22:11:11.031Z,99010.09
2023-05-21T22:16:13.027Z,99004.86
2023-05-21T22:21:18.377Z,99008.75
2023-05-21T22:26:20.348Z,99010.13
2023-05-21T22:31:22.193Z,99007.84
2023-05-21T22:36:23.977Z,99011.27
2023-05-21T22:41:25.958Z,99016.23
2023-05-21T22:46:27.712Z,99014.44
2023-05-21T22:51:34.566Z,99013.70
2023-05-21T22:56:36.746Z,99017.80
2023-05-21T23:01:38.858Z,99015.36
2023-05-21T23:06:42.277Z,99016.83
2023-05-21T23:11:44.686Z,99009.72
2023-05-21T23:16:48.888Z,99011.35
2023-05-21T23:21:50.699Z,99013.86
2023-05-21T23:26:52.559Z,99009.65
2023-05-21T23:31:56.389Z,99009.67
2023-05-21T23:37:00.275Z,99008.66
2023-05-21T23:42:03.166Z,99005.77
2023-05-21T23:47:25.927Z,99009.76
2023-05-21T23:52:27.665Z,99004.46
2023-05-21T23:57:29.421Z,99000.52
